Time;durP1;ratioP1;P1;durP2;ratioP2;P2;SDS_P1;SDS_P2;PMS_P1;PMS_P2;Temp;Humidity;BMP_temperature;BMP_pressure;BME280_temperature;BME280_humidity;BME280_pressure;Samples;Min_cycle;Max_cycle;Signal;HPM_P1;HPM_P2
2023/10/17 00:01:44;;;;;;;0.17;0.17;;;9.30;99.90;;;;;;5047824;28;20013;-87
2023/10/17 00:06:47;;;;;;;0.10;0.10;;;9.30;99.90;;;;;;5034123;28;20021;-87
2023/10/17 00:09:21;;;;;;;0.20;0.20;;;9.30;99.90;;;;;;5038943;28;20021;-87
2023/10/17 00:14:20;;;;;;;0.20;0.20;;;9.30;99.90;;;;;;5038128;28;20052;-86
2023/10/17 00:16:48;;;;;;;0.20;0.20;;;9.40;99.90;;;;;;5048390;28;20041;-86
2023/10/17 00:19:16;;;;;;;0.20;0.20;;;9.40;99.90;;;;;;5034566;28;20178;-87
2023/10/17 00:21:42;;;;;;;0.30;0.30;;;9.30;99.90;;;;;;5034221;28;20018;-87
2023/10/17 00:24:11;;;;;;;0.38;0.38;;;9.40;99.90;;;;;;5034546;28;20032;-87
2023/10/17 00:26:40;;;;;;;0.20;0.20;;;9.30;99.90;;;;;;5044012;28;20030;-87
2023/10/17 00:29:09;;;;;;;0.10;0.10;;;9.30;99.90;;;;;;5038631;28;20351;-86
2023/10/17 00:31:36;;;;;;;0.47;0.20;;;9.30;99.90;;;;;;5149487;23;20041;-84
2023/10/17 00:34:15;;;;;;;0.40;0.30;;;9.30;99.90;;;;;;5036046;28;20033;-84
2023/10/17 00:36:48;;;;;;;0.30;0.30;;;9.30;99.90;;;;;;5031237;28;20024;-84
2023/10/17 00:39:30;;;;;;;0.20;0.20;;;9.20;99.90;;;;;;5035662;28;20021;-84
2023/10/17 00:44:36;;;;;;;0.20;0.20;;;9.30;99.90;;;;;;5034601;28;20575;-84
2023/10/17 00:47:03;;;;;;;0.10;0.10;;;9.30;99.90;;;;;;5031377;28;20059;-84
2023/10/17 00:49:33;;;;;;;1.45;0.30;;;9.30;99.90;;;;;;5032899;28;20064;-84
2023/10/17 00:52:03;;;;;;;0.50;0.50;;;9.30;99.90;;;;;;5033385;28;20038;-85
2023/10/17 00:54:35;;;;;;;0.20;0.20;;;9.40;99.90;;;;;;5033178;28;20029;-84
2023/10/17 00:57:05;;;;;;;0.28;0.28;;;9.40;99.90;;;;;;5032116;28;20473;-83
2023/10/17 00:59:31;;;;;;;0.22;0.22;;;9.40;99.90;;;;;;5032059;28;20859;-84
2023/10/17 01:01:57;;;;;;;0.30;0.30;;;9.40;99.90;;;;;;5032922;28;20121;-83
2023/10/17 01:04:28;;;;;;;0.10;0.10;;;9.40;99.90;;;;;;5033890;28;20067;-84
2023/10/17 01:06:54;;;;;;;0.10;0.10;;;9.40;99.90;;;;;;5029265;28;20301;-85
2023/10/17 01:09:28;;;;;;;0.65;0.35;;;9.40;99.90;;;;;;5030429;28;20114;-84
2023/10/17 01:11:57;;;;;;;0.20;0.20;;;9.40;99.90;;;;;;5030074;28;20416;-84
2023/10/17 01:14:23;;;;;;;0.30;0.30;;;9.40;99.90;;;;;;5032440;28;20032;-84
2023/10/17 01:16:53;;;;;;;1.33;1.23;;;9.40;99.90;;;;;;5033106;28;20039;-84
2023/10/17 01:19:20;;;;;;;0.10;0.10;;;9.50;99.90;;;;;;5032952;28;20020;-84
2023/10/17 01:21:46;;;;;;;0.15;0.15;;;9.50;99.90;;;;;;5033126;28;20299;-84
2023/10/17 01:24:12;;;;;;;0.20;0.20;;;9.50;99.90;;;;;;5033798;28;20036;-83
2023/10/17 01:26:44;;;;;;;0.28;0.28;;;9.50;99.90;;;;;;5030633;28;20032;-84
2023/10/17 01:29:11;;;;;;;13.35;0.52;;;9.50;99.90;;;;;;5029327;28;20083;-84
2023/10/17 01:31:39;;;;;;;0.28;0.28;;;9.40;99.90;;;;;;5030391;28;20037;-85
2023/10/17 01:34:05;;;;;;;0.38;0.38;;;9.40;99.90;;;;;;5033011;28;20116;-84
2023/10/17 01:36:31;;;;;;;0.20;0.20;;;9.40;99.90;;;;;;5033225;28;20550;-84
2023/10/17 01:39:00;;;;;;;0.20;0.20;;;9.40;99.90;;;;;;5031331;28;20059;-85
2023/10/17 01:41:25;;;;;;;0.10;0.10;;;9.30;99.90;;;;;;5031117;28;20069;-84
2023/10/17 01:43:51;;;;;;;0.10;0.10;;;9.30;99.90;;;;;;5028731;28;20163;-83
2023/10/17 01:46:23;;;;;;;0.13;0.13;;;9.30;99.90;;;;;;5030997;28;20025;-84
2023/10/17 01:48:54;;;;;;;0.43;0.43;;;9.30;99.90;;;;;;5031211;28;20017;-84
2023/10/17 01:51:19;;;;;;;0.10;0.10;;;9.30;99.90;;;;;;5030273;28;20368;-83
2023/10/17 01:53:49;;;;;;;0.20;0.20;;;9.30;99.90;;;;;;5036082;28;20026;-84
2023/10/17 01:56:16;;;;;;;0.30;0.30;;;9.30;99.90;;;;;;5050193;28;20025;-84
2023/10/17 01:58:46;;;;;;;0.30;0.30;;;9.30;99.90;;;;;;5056982;28;20006;-84
2023/10/17 02:01:14;;;;;;;0.10;0.10;;;9.30;99.90;;;;;;5056985;28;20005;-85
2023/10/17 02:03:40;;;;;;;0.10;0.10;;;9.30;99.90;;;;;;5046439;28;20030;-84
2023/10/17 02:06:14;;;;;;;1.23;0.77;;;9.20;99.90;;;;;;5032952;28;20028;-84
2023/10/17 02:08:43;;;;;;;0.20;0.20;;;9.30;99.90;;;;;;5028773;28;20032;-84
2023/10/17 02:11:13;;;;;;;0.15;0.15;;;9.30;99.90;;;;;;5030238;28;20366;-84
2023/10/17 02:13:41;;;;;;;0.38;0.38;;;9.30;99.90;;;;;;5034521;28;20040;-84
2023/10/17 02:16:08;;;;;;;0.20;0.20;;;9.30;99.90;;;;;;5031569;28;20021;-84
2023/10/17 02:18:34;;;;;;;0.30;0.30;;;9.30;99.90;;;;;;5033950;28;20017;-85
2023/10/17 02:21:04;;;;;;;0.13;0.13;;;9.30;99.90;;;;;;5029937;28;20455;-84
2023/10/17 02:23:39;;;;;;;0.30;0.30;;;9.40;99.90;;;;;;5029479;28;20040;-84
2023/10/17 02:26:10;;;;;;;0.13;0.13;;;9.40;99.90;;;;;;5033217;28;20111;-84
2023/10/17 02:28:44;;;;;;;0.22;0.22;;;9.40;99.90;;;;;;5026789;28;20233;-84
2023/10/17 02:31:13;;;;;;;0.10;0.10;;;9.40;99.90;;;;;;5030287;28;20030;-83
2023/10/17 02:33:44;;;;;;;0.10;0.10;;;9.40;99.90;;;;;;5029128;28;20047;-84
2023/10/17 02:36:13;;;;;;;0.10;0.10;;;9.40;99.90;;;;;;5032547;28;20348;-83
2023/10/17 02:38:45;;;;;;;0.30;0.30;;;9.40;99.90;;;;;;5028156;28;20029;-84
2023/10/17 02:41:28;;;;;;;0.25;0.25;;;9.40;99.90;;;;;;5027968;28;20096;-83
2023/10/17 02:43:55;;;;;;;0.10;0.10;;;9.40;99.90;;;;;;5033283;28;20120;-84
2023/10/17 02:46:28;;;;;;;0.35;0.30;;;9.50;99.90;;;;;;5034147;28;20056;-83
2023/10/17 02:48:57;;;;;;;0.38;0.38;;;9.50;99.90;;;;;;5030419;28;20029;-84
2023/10/17 02:53:56;;;;;;;0.20;0.20;;;9.40;99.90;;;;;;5027861;28;20388;-84
2023/10/17 02:56:22;;;;;;;0.20;0.20;;;9.40;99.90;;;;;;5033441;28;20032;-83
2023/10/17 02:58:59;;;;;;;0.30;0.30;;;9.30;99.90;;;;;;5035423;28;20025;-84
2023/10/17 03:01:27;;;;;;;0.47;0.40;;;9.30;99.90;;;;;;5029580;28;20424;-84
2023/10/17 03:03:53;;;;;;;0.57;0.57;;;9.30;99.90;;;;;;5028342;28;20183;-83
2023/10/17 03:06:21;;;;;;;0.25;0.25;;;9.20;99.90;;;;;;5033272;28;20066;-85
2023/10/17 03:08:51;;;;;;;0.20;0.20;;;9.20;99.90;;;;;;5030123;28;20029;-84
2023/10/17 03:11:26;;;;;;;0.10;0.10;;;9.20;99.90;;;;;;5034098;28;20040;-84
2023/10/17 03:13:52;;;;;;;0.30;0.30;;;9.20;99.90;;;;;;5033625;28;20029;-84
2023/10/17 03:16:30;;;;;;;0.40;0.40;;;9.20;99.90;;;;;;5031719;28;20040;-84
2023/10/17 03:18:58;;;;;;;0.50;0.50;;;9.20;99.90;;;;;;5028549;28;20124;-84
2023/10/17 03:21:34;;;;;;;0.30;0.30;;;9.20;99.90;;;;;;5028169;28;20021;-84
2023/10/17 03:24:10;;;;;;;0.20;0.20;;;9.20;99.90;;;;;;5028437;28;20033;-84
2023/10/17 03:26:54;;;;;;;0.10;0.10;;;9.10;99.90;;;;;;5026201;28;20095;-84
2023/10/17 03:29:23;;;;;;;0.30;0.30;;;9.10;99.90;;;;;;5034622;28;20029;-84
2023/10/17 03:31:53;;;;;;;0.40;0.22;;;9.20;99.90;;;;;;5026305;28;20414;-84
2023/10/17 03:34:34;;;;;;;0.35;0.22;;;9.20;99.90;;;;;;5027468;28;20065;-84
2023/10/17 03:37:26;;;;;;;0.55;0.30;;;9.10;99.90;;;;;;5027980;28;20058;-83
2023/10/17 03:39:51;;;;;;;0.20;0.20;;;9.10;99.90;;;;;;5030679;28;20029;-84
2023/10/17 03:42:31;;;;;;;0.65;0.65;;;9.20;99.90;;;;;;5033459;28;20336;-84
2023/10/17 03:44:56;;;;;;;1.27;1.17;;;9.20;99.90;;;;;;5025725;28;20620;-84
2023/10/17 03:47:22;;;;;;;0.30;0.30;;;9.20;99.90;;;;;;5030714;28;20096;-83
2023/10/17 03:49:48;;;;;;;0.40;0.40;;;9.20;99.90;;;;;;5033282;28;20044;-84
2023/10/17 03:52:16;;;;;;;0.30;0.30;;;9.10;99.90;;;;;;5027720;28;20014;-84
2023/10/17 03:54:44;;;;;;;0.30;0.30;;;9.20;99.90;;;;;;5029954;28;20486;-83
2023/10/17 03:57:15;;;;;;;0.30;0.30;;;9.20;99.90;;;;;;5031106;28;20031;-83
2023/10/17 03:59:42;;;;;;;0.77;0.30;;;9.20;99.90;;;;;;5038182;28;20609;-83
2023/10/17 04:02:17;;;;;;;0.22;0.22;;;9.20;99.90;;;;;;5036899;28;20028;-84
2023/10/17 04:04:53;;;;;;;0.80;0.80;;;9.20;99.90;;;;;;5031092;28;20098;-84
2023/10/17 04:07:23;;;;;;;0.35;0.35;;;9.20;99.90;;;;;;5034881;28;20666;-84
2023/10/17 04:10:19;;;;;;;0.52;0.52;;;9.20;99.90;;;;;;5038112;28;20240;-83
2023/10/17 04:13:34;;;;;;;0.47;0.47;;;9.20;99.90;;;;;;5034179;28;20468;-84
2023/10/17 04:15:34;;;;;;;0.10;0.10;;;9.30;99.90;;;;;;5034566;28;20478;-84
2023/10/17 04:18:00;;;;;;;0.20;0.20;;;9.30;99.90;;;;;;5037519;28;20025;-84
2023/10/17 04:20:25;;;;;;;0.10;0.10;;;9.30;99.90;;;;;;5039432;28;20037;-83
2023/10/17 04:22:51;;;;;;;0.25;0.25;;;9.30;99.90;;;;;;5031891;28;20041;-84
2023/10/17 04:25:21;;;;;;;0.88;0.80;;;9.30;99.90;;;;;;5032766;28;20041;-84
2023/10/17 04:27:59;;;;;;;0.10;0.10;;;9.30;99.90;;;;;;5038063;28;20524;-84
2023/10/17 04:30:35;;;;;;;0.20;0.20;;;9.30;99.90;;;;;;5029180;28;20032;-84
2023/10/17 04:33:13;;;;;;;0.35;0.35;;;9.20;99.90;;;;;;5034922;28;20037;-84
2023/10/17 04:35:46;;;;;;;0.20;0.20;;;9.20;99.90;;;;;;5036658;28;20155;-83
2023/10/17 04:41:12;;;;;;;0.70;0.55;;;9.30;99.90;;;;;;5031890;28;20064;-84
2023/10/17 04:43:44;;;;;;;0.88;0.57;;;9.30;99.90;;;;;;5030259;28;20136;-84
2023/10/17 04:46:12;;;;;;;2.50;0.50;;;9.30;99.90;;;;;;5031932;28;20024;-83
2023/10/17 04:48:40;;;;;;;0.10;0.10;;;9.30;99.90;;;;;;5034895;28;20029;-84
2023/10/17 04:53:48;;;;;;;0.10;0.10;;;9.40;99.90;;;;;;5033202;28;20025;-84
2023/10/17 04:56:21;;;;;;;0.10;0.10;;;9.40;99.90;;;;;;5035204;28;20037;-84
2023/10/17 05:04:13;;;;;;;0.10;0.10;;;9.40;99.90;;;;;;5029675;28;20693;-83
2023/10/17 06:17:59;;;;;;;0.40;0.40;;;9.30;99.90;;;;;;5032206;28;20500;-83
2023/10/17 06:21:06;;;;;;;0.47;0.47;;;9.30;99.90;;;;;;5034228;28;20075;-83
2023/10/17 06:24:06;;;;;;;0.38;0.38;;;9.30;99.90;;;;;;5032889;28;20021;-84
2023/10/17 06:30:06;;;;;;;0.73;0.50;;;9.30;99.90;;;;;;5026737;28;20068;-84
2023/10/17 06:34:19;;;;;;;0.68;0.68;;;9.30;99.90;;;;;;5027965;28;20020;-84
2023/10/17 06:36:50;;;;;;;0.80;0.80;;;9.30;99.90;;;;;;5043365;28;20028;-82
2023/10/17 06:39:19;;;;;;;0.30;0.30;;;9.40;99.90;;;;;;5030880;28;20759;-84
2023/10/17 06:41:47;;;;;;;0.20;0.20;;;9.40;99.90;;;;;;5031835;28;20037;-84
2023/10/17 06:44:21;;;;;;;0.20;0.20;;;9.40;99.90;;;;;;5029652;28;20168;-85
2023/10/17 06:47:08;;;;;;;0.30;0.30;;;9.40;99.90;;;;;;5034565;28;20024;-84
2023/10/17 06:54:42;;;;;;;0.68;0.68;;;9.40;99.90;;;;;;5028615;28;20040;-83
2023/10/17 06:57:19;;;;;;;0.20;0.20;;;9.40;99.90;;;;;;5033523;28;20681;-84
2023/10/17 07:00:00;;;;;;;0.73;0.73;;;9.40;99.90;;;;;;5034629;28;20402;-84
2023/10/17 07:02:30;;;;;;;0.47;0.47;;;9.50;99.90;;;;;;5026720;28;20029;-84
2023/10/17 07:05:00;;;;;;;0.30;0.30;;;9.50;99.90;;;;;;5030366;28;20044;-84
2023/10/17 07:07:39;;;;;;;1.38;0.50;;;9.50;99.90;;;;;;5026004;28;20060;-84
2023/10/17 07:10:36;;;;;;;0.75;0.75;;;9.50;99.90;;;;;;5029486;28;20357;-83
2023/10/17 07:13:41;;;;;;;0.30;0.30;;;9.50;99.90;;;;;;5029118;28;20056;-85
2023/10/17 07:16:12;;;;;;;0.43;0.30;;;9.60;99.90;;;;;;5024287;28;20042;-90
2023/10/17 07:18:44;;;;;;;0.30;0.30;;;9.60;99.90;;;;;;5036808;28;20025;-89
2023/10/17 07:23:41;;;;;;;0.47;0.47;;;9.50;99.90;;;;;;5032660;28;20045;-88
2023/10/17 07:26:10;;;;;;;0.30;0.30;;;9.60;99.90;;;;;;5031344;28;20656;-83
2023/10/17 07:28:42;;;;;;;0.82;0.82;;;9.60;99.90;;;;;;5031628;28;20044;-83
2023/10/17 07:31:11;;;;;;;0.75;0.75;;;9.60;99.90;;;;;;5035582;28;20033;-82
2023/10/17 07:33:40;;;;;;;0.20;0.20;;;9.70;99.90;;;;;;5047543;28;20025;-82
2023/10/17 07:36:12;;;;;;;0.30;0.30;;;9.70;99.90;;;;;;5031878;28;20238;-83
2023/10/17 07:38:38;;;;;;;;;;;9.70;99.90;;;;;;5033839;28;20060;-82
2023/10/17 07:41:13;;;;;;;1.08;1.08;;;9.70;99.90;;;;;;5030144;28;20092;-83
2023/10/17 07:43:45;;;;;;;0.20;0.20;;;9.70;99.90;;;;;;5029106;28;20532;-82
2023/10/17 07:46:18;;;;;;;0.20;0.20;;;9.70;99.90;;;;;;5028201;28;20085;-84
2023/10/17 07:48:48;;;;;;;0.45;0.45;;;9.70;99.90;;;;;;5031966;28;20424;-83
2023/10/17 07:51:17;;;;;;;0.22;0.22;;;9.80;99.90;;;;;;5035661;28;20026;-83
2023/10/17 07:53:47;;;;;;;0.50;0.50;;;9.80;99.90;;;;;;5030624;28;20087;-83
2023/10/17 07:56:26;;;;;;;0.57;0.57;;;9.90;99.90;;;;;;5037730;28;20057;-83
2023/10/17 07:58:57;;;;;;;0.45;0.45;;;9.90;99.90;;;;;;5030857;28;20029;-83
2023/10/17 08:01:31;;;;;;;0.22;0.22;;;9.80;99.90;;;;;;5030793;28;20033;-84
2023/10/17 08:04:17;;;;;;;3.25;0.90;;;9.90;99.90;;;;;;5033510;28;20036;-82
2023/10/17 08:06:44;;;;;;;0.60;0.30;;;9.90;99.90;;;;;;5047422;28;20086;-84
2023/10/17 08:11:51;;;;;;;0.10;0.10;;;10.10;99.90;;;;;;5030953;28;20032;-84
2023/10/17 08:14:18;;;;;;;0.40;0.25;;;10.10;99.90;;;;;;5033095;28;20108;-84
2023/10/17 08:16:46;;;;;;;0.45;0.40;;;10.20;99.90;;;;;;5036559;28;20040;-82
2023/10/17 08:19:29;;;;;;;0.50;0.50;;;10.20;99.90;;;;;;5031298;28;20025;-82
2023/10/17 08:24:40;;;;;;;0.57;0.57;;;10.40;99.90;;;;;;5027560;28;20060;-85
2023/10/17 08:27:13;;;;;;;0.50;0.50;;;10.40;99.90;;;;;;5031457;28;20489;-86
2023/10/17 08:29:42;;;;;;;;;;;10.50;99.90;;;;;;5037555;28;20067;-83
2023/10/17 08:34:47;;;;;;;0.35;0.35;;;11.00;99.90;;;;;;5032030;28;20048;-85
2023/10/17 08:37:40;;;;;;;0.43;0.38;;;11.00;99.90;;;;;;5033639;28;20021;-83
2023/10/17 08:42:50;;;;;;;0.35;0.35;;;11.20;99.90;;;;;;5033581;28;20036;-84
2023/10/17 08:45:18;;;;;;;0.20;0.20;;;11.30;99.90;;;;;;5033704;28;20036;-83
2023/10/17 08:47:44;;;;;;;0.20;0.20;;;11.40;99.90;;;;;;5031976;28;20039;-84
2023/10/17 08:50:10;;;;;;;0.93;0.93;;;11.40;99.90;;;;;;5029224;28;20024;-83
2023/10/17 08:52:38;;;;;;;0.28;0.28;;;11.60;99.90;;;;;;5030461;28;20021;-83
2023/10/17 08:55:04;;;;;;;0.40;0.40;;;11.80;99.90;;;;;;5032873;28;20091;-85
2023/10/17 08:57:31;;;;;;;1.38;1.27;;;12.00;99.90;;;;;;5038774;28;20029;-87
2023/10/17 09:00:23;;;;;;;0.52;0.52;;;12.20;99.90;;;;;;5031785;28;20057;-87
2023/10/17 09:02:55;;;;;;;0.75;0.75;;;12.40;99.90;;;;;;5029236;28;20451;-86
2023/10/17 09:05:27;;;;;;;0.60;0.60;;;12.60;99.90;;;;;;5026763;28;20030;-82
2023/10/17 09:07:56;;;;;;;0.57;0.57;;;12.80;99.90;;;;;;5037704;28;20025;-83
2023/10/17 09:10:38;;;;;;;0.30;0.30;;;13.10;99.90;;;;;;5035021;28;20399;-82
2023/10/17 09:15:56;;;;;;;0.70;0.70;;;13.80;99.90;;;;;;5024416;28;20738;-83
2023/10/17 09:18:27;;;;;;;0.40;0.40;;;14.00;99.90;;;;;;5035338;28;20025;-84
2023/10/17 09:20:57;;;;;;;0.98;0.98;;;14.30;99.90;;;;;;5038610;28;20060;-83
2023/10/17 09:23:30;;;;;;;1.00;0.50;;;14.50;99.90;;;;;;5031787;28;20108;-83
2023/10/17 09:25:58;;;;;;;0.55;0.55;;;14.50;99.90;;;;;;5025887;28;20059;-85
2023/10/17 09:28:30;;;;;;;0.80;0.77;;;14.60;99.90;;;;;;5040178;28;20337;-83
2023/10/17 09:31:03;;;;;;;0.63;0.63;;;14.70;99.90;;;;;;5054038;28;20418;-84
2023/10/17 09:33:30;;;;;;;0.70;0.70;;;14.90;99.90;;;;;;5056091;28;20100;-82
2023/10/17 09:36:04;;;;;;;0.90;0.90;;;14.90;99.90;;;;;;5057076;28;20035;-82
2023/10/17 09:38:43;;;;;;;0.95;0.95;;;14.90;99.90;;;;;;5038087;28;20033;-83
2023/10/17 09:41:11;;;;;;;0.70;0.70;;;15.00;99.90;;;;;;5031873;28;20830;-81
2023/10/17 09:43:38;;;;;;;0.32;0.32;;;15.10;99.90;;;;;;5035903;28;20047;-83
2023/10/17 09:46:15;;;;;;;0.52;0.52;;;15.40;99.90;;;;;;5025639;28;20398;-84
2023/10/17 09:48:48;;;;;;;0.40;0.40;;;15.70;99.90;;;;;;5035373;28;20081;-91
2023/10/17 09:51:27;;;;;;;1.10;0.68;;;15.90;99.90;;;;;;5017784;28;20111;-83
2023/10/17 09:53:54;;;;;;;0.52;0.52;;;16.10;99.90;;;;;;5031530;28;20032;-83
2023/10/17 09:56:26;;;;;;;1.05;0.95;;;16.20;99.90;;;;;;5036390;28;20056;-84
2023/10/17 09:58:59;;;;;;;0.80;0.40;;;16.10;99.90;;;;;;5030657;28;20367;-84
2023/10/17 10:01:31;;;;;;;1.90;0.70;;;15.90;99.90;;;;;;5031024;28;20108;-83
2023/10/17 10:04:01;;;;;;;0.50;0.50;;;16.00;99.90;;;;;;5034907;28;20041;-83
2023/10/17 10:06:34;;;;;;;0.63;0.63;;;16.30;99.90;;;;;;5034646;28;20021;-83
2023/10/17 10:09:14;;;;;;;0.47;0.35;;;16.40;99.90;;;;;;5032691;28;20651;-83
2023/10/17 10:11:49;;;;;;;0.63;0.63;;;16.50;99.90;;;;;;5031104;28;20120;-84
2023/10/17 10:14:16;;;;;;;0.85;0.82;;;16.50;99.90;;;;;;5028085;28;20132;-83
2023/10/17 10:16:54;;;;;;;1.40;1.13;;;16.60;99.90;;;;;;5044428;28;20052;-83
2023/10/17 10:19:21;;;;;;;0.55;0.55;;;16.60;99.90;;;;;;5034044;28;20051;-82
2023/10/17 10:21:58;;;;;;;0.70;0.70;;;16.70;99.90;;;;;;5044049;28;20056;-82
2023/10/17 10:24:32;;;;;;;0.40;0.40;;;16.70;99.90;;;;;;5033655;28;20093;-83
2023/10/17 10:27:09;;;;;;;0.45;0.45;;;16.70;99.90;;;;;;5029626;28;20451;-82
2023/10/17 10:29:35;;;;;;;0.98;0.98;;;16.80;99.90;;;;;;5029112;28;20506;-87
2023/10/17 10:32:10;;;;;;;1.13;0.40;;;16.70;99.90;;;;;;5038427;28;20096;-87
2023/10/17 10:34:37;;;;;;;0.95;0.95;;;16.70;99.90;;;;;;5028024;28;20381;-84
2023/10/17 10:37:03;;;;;;;0.70;0.43;;;16.80;99.90;;;;;;5035361;28;20670;-82
2023/10/17 10:39:32;;;;;;;0.45;0.45;;;16.70;99.90;;;;;;5030292;28;20033;-83
2023/10/17 10:42:00;;;;;;;0.40;0.40;;;16.60;99.90;;;;;;5032303;28;20546;-83
2023/10/17 10:44:26;;;;;;;0.50;0.50;;;16.70;99.60;;;;;;5025531;28;20037;-83
2023/10/17 10:46:55;;;;;;;0.45;0.45;;;16.50;99.50;;;;;;5032398;28;20525;-84
2023/10/17 10:49:30;;;;;;;0.50;0.50;;;16.60;99.90;;;;;;5030324;28;20435;-83
2023/10/17 10:51:58;;;;;;;0.40;0.40;;;16.60;99.90;;;;;;5043722;28;20032;-83
2023/10/17 10:54:27;;;;;;;0.93;0.93;;;16.80;99.90;;;;;;5030967;28;20021;-83
2023/10/17 10:56:53;;;;;;;0.65;0.65;;;17.00;98.50;;;;;;5024112;28;20198;-82
2023/10/17 10:59:23;;;;;;;0.52;0.52;;;17.00;98.10;;;;;;5027910;28;20048;-84
2023/10/17 11:01:49;;;;;;;0.30;0.30;;;17.00;99.80;;;;;;5031148;28;20357;-83
2023/10/17 11:04:15;;;;;;;0.32;0.32;;;17.10;97.80;;;;;;5035139;28;20037;-83
2023/10/17 11:06:43;;;;;;;4.53;2.53;;;17.10;97.80;;;;;;5039831;28;20116;-84
2023/10/17 11:09:09;;;;;;;1.08;0.77;;;17.00;98.50;;;;;;5033845;28;20508;-84
2023/10/17 11:11:46;;;;;;;0.50;0.50;;;17.00;98.40;;;;;;5036828;28;20117;-83
2023/10/17 11:14:16;;;;;;;0.68;0.40;;;17.10;98.70;;;;;;5032435;28;20053;-83
2023/10/17 11:16:42;;;;;;;0.38;0.35;;;17.10;98.10;;;;;;5032225;28;20036;-83
2023/10/17 11:19:22;;;;;;;0.50;0.50;;;17.10;98.20;;;;;;5031455;28;20492;-82
2023/10/17 11:22:02;;;;;;;0.43;0.43;;;17.10;99.00;;;;;;5034993;28;20056;-83
2023/10/17 11:24:29;;;;;;;0.57;0.57;;;17.40;98.30;;;;;;5037973;28;20132;-84
2023/10/17 11:26:55;;;;;;;0.52;0.52;;;17.60;98.60;;;;;;5038668;28;20025;-88
2023/10/17 11:29:26;;;;;;;1.25;1.25;;;17.60;98.40;;;;;;5037383;28;20055;-85
2023/10/17 11:31:53;;;;;;;0.40;0.40;;;17.60;97.60;;;;;;5048060;28;20041;-84
2023/10/17 11:34:30;;;;;;;0.60;0.60;;;17.40;97.40;;;;;;5034604;28;20099;-86
2023/10/17 11:37:02;;;;;;;0.50;0.50;;;17.20;98.20;;;;;;5032595;28;20025;-84
2023/10/17 11:39:38;;;;;;;0.52;0.52;;;17.00;98.70;;;;;;5033040;28;20033;-84
2023/10/17 11:42:06;;;;;;;0.40;0.40;;;16.90;99.00;;;;;;5036722;28;20032;-84
2023/10/17 11:44:32;;;;;;;0.60;0.60;;;17.00;98.80;;;;;;5031039;28;20061;-84
2023/10/17 11:47:06;;;;;;;0.30;0.30;;;17.00;99.10;;;;;;5034427;28;20102;-83
2023/10/17 11:49:35;;;;;;;0.50;0.50;;;16.80;98.70;;;;;;5035208;28;20029;-84
2023/10/17 11:52:10;;;;;;;0.43;0.43;;;16.80;98.90;;;;;;5037606;28;20048;-84
2023/10/17 11:55:00;;;;;;;2.75;0.43;;;17.00;99.40;;;;;;5038200;28;20558;-85
2023/10/17 11:57:27;;;;;;;0.50;0.50;;;17.10;98.90;;;;;;5039475;28;20447;-83
2023/10/17 12:02:43;;;;;;;0.30;0.30;;;17.40;98.10;;;;;;5033884;28;20041;-84
2023/10/17 12:05:20;;;;;;;0.40;0.40;;;17.40;97.20;;;;;;5036731;28;20037;-85
2023/10/17 12:07:49;;;;;;;0.47;0.47;;;17.40;97.00;;;;;;5031653;28;20025;-84
2023/10/17 12:10:15;;;;;;;0.40;0.40;;;17.60;97.30;;;;;;5033217;28;20032;-84
2023/10/17 12:12:43;;;;;;;0.57;0.57;;;17.70;97.40;;;;;;5042727;28;20032;-84
2023/10/17 12:15:20;;;;;;;0.77;0.77;;;17.80;97.60;;;;;;5040286;28;20033;-83
2023/10/17 12:17:48;;;;;;;0.63;0.63;;;17.90;97.20;;;;;;5034348;28;20166;-86
2023/10/17 12:20:16;;;;;;;0.50;0.50;;;18.20;97.50;;;;;;5035510;28;20037;-84
2023/10/17 12:22:42;;;;;;;0.60;0.60;;;18.30;96.60;;;;;;5034167;28;20021;-84
2023/10/17 12:25:23;;;;;;;2.08;0.60;;;18.30;96.00;;;;;;5031432;28;20448;-84
2023/10/17 12:27:52;;;;;;;0.50;0.50;;;18.30;95.60;;;;;;5181724;23;20570;-84
2023/10/17 12:30:28;;;;;;;0.22;0.22;;;18.30;95.40;;;;;;5038931;28;20021;-85
2023/10/17 12:32:57;;;;;;;0.40;0.40;;;18.20;94.40;;;;;;5041110;28;20021;-88
2023/10/17 12:35:23;;;;;;;0.20;0.20;;;18.20;93.90;;;;;;5040446;28;20643;-90
2023/10/17 12:37:57;;;;;;;0.40;0.40;;;18.00;94.00;;;;;;5047269;28;20040;-89
2023/10/17 12:40:22;;;;;;;0.30;0.30;;;18.00;94.70;;;;;;5038949;28;20207;-87
2023/10/17 12:42:51;;;;;;;0.30;0.30;;;18.00;94.40;;;;;;5038964;28;20431;-85
2023/10/17 12:45:17;;;;;;;0.30;0.30;;;18.00;93.90;;;;;;5037512;28;20036;-91
2023/10/17 12:47:44;;;;;;;0.57;0.57;;;18.10;93.00;;;;;;5034863;28;20040;-89
2023/10/17 12:50:14;;;;;;;0.30;0.30;;;18.30;93.20;;;;;;5037290;28;20440;-89
2023/10/17 12:52:40;;;;;;;0.50;0.50;;;18.40;93.10;;;;;;5036479;28;20224;-83
2023/10/17 12:55:07;;;;;;;0.75;0.75;;;18.40;92.70;;;;;;5041926;28;20130;-83
2023/10/17 12:57:33;;;;;;;0.85;0.85;;;18.40;92.70;;;;;;5037968;28;20115;-83
2023/10/17 12:59:59;;;;;;;0.30;0.30;;;18.30;92.40;;;;;;5036551;28;20116;-83
2023/10/17 13:02:29;;;;;;;0.50;0.50;;;18.40;92.90;;;;;;5037076;28;20113;-83
2023/10/17 13:04:55;;;;;;;0.60;0.60;;;18.70;92.60;;;;;;5030570;28;20334;-85
2023/10/17 13:07:23;;;;;;;0.35;0.35;;;18.80;92.50;;;;;;5035424;28;20021;-85
2023/10/17 13:09:49;;;;;;;0.30;0.30;;;18.90;91.60;;;;;;5039877;28;20040;-85
2023/10/17 13:12:17;;;;;;;0.40;0.40;;;19.00;91.20;;;;;;5055328;28;20021;-86
2023/10/17 13:14:43;;;;;;;0.98;0.95;;;19.00;90.20;;;;;;5069925;28;20033;-87
2023/10/17 13:17:11;;;;;;;0.50;0.50;;;18.80;90.70;;;;;;5064229;28;20025;-90
2023/10/17 13:19:43;;;;;;;0.40;0.40;;;18.80;90.80;;;;;;5060877;28;20036;-89
2023/10/17 13:22:14;;;;;;;0.50;0.50;;;18.80;91.20;;;;;;5041483;28;20871;-88
2023/10/17 13:24:40;;;;;;;0.50;0.50;;;18.70;91.10;;;;;;5041141;28;20097;-88
2023/10/17 13:27:06;;;;;;;1.00;1.00;;;18.70;91.30;;;;;;5040687;28;20025;-89
2023/10/17 13:29:32;;;;;;;0.45;0.45;;;18.70;90.70;;;;;;5040815;28;20037;-85
2023/10/17 13:31:58;;;;;;;0.30;0.30;;;18.70;91.70;;;;;;5039641;28;20048;-85
2023/10/17 13:34:27;;;;;;;0.40;0.40;;;18.90;90.20;;;;;;5050136;28;20400;-86
2023/10/17 13:36:52;;;;;;;0.35;0.35;;;19.10;90.50;;;;;;5041820;28;20063;-85
2023/10/17 13:39:22;;;;;;;0.50;0.50;;;19.20;90.80;;;;;;5041101;28;20057;-85
2023/10/17 13:41:50;;;;;;;0.82;0.82;;;19.10;90.80;;;;;;5046173;28;20032;-85
2023/10/17 13:44:15;;;;;;;0.40;0.40;;;19.00;90.00;;;;;;5040033;28;20033;-85
2023/10/17 13:46:41;;;;;;;0.43;0.43;;;19.10;89.30;;;;;;5041224;28;20469;-85
2023/10/17 13:49:08;;;;;;;0.47;0.47;;;19.30;89.00;;;;;;5031180;28;20096;-85
2023/10/17 13:51:47;;;;;;;0.60;0.60;;;19.40;87.20;;;;;;5041423;28;20437;-86
2023/10/17 13:54:14;;;;;;;0.63;0.63;;;19.60;85.30;;;;;;5042108;28;20025;-85
2023/10/17 13:56:40;;;;;;;0.70;0.70;;;19.70;85.60;;;;;;5033444;28;20469;-85
2023/10/17 13:59:10;;;;;;;0.77;0.77;;;19.90;85.30;;;;;;5041677;28;20040;-85
2023/10/17 14:01:42;;;;;;;0.70;0.70;;;20.10;84.00;;;;;;5039000;28;20439;-85
2023/10/17 14:04:11;;;;;;;0.75;0.75;;;20.40;84.40;;;;;;5060782;28;20039;-88
2023/10/17 14:06:42;;;;;;;1.02;1.02;;;20.50;82.20;;;;;;5050173;28;20029;-88
2023/10/17 14:09:14;;;;;;;0.85;0.85;;;20.90;82.00;;;;;;5042746;28;20314;-89
2023/10/17 14:11:53;;;;;;;0.90;0.90;;;21.40;81.00;;;;;;5045522;28;20427;-85
2023/10/17 14:14:18;;;;;;;2.13;1.35;;;21.60;79.50;;;;;;5042229;28;20051;-89
2023/10/17 14:16:44;;;;;;;1.13;1.13;;;21.80;78.70;;;;;;5043713;28;20040;-87
2023/10/17 14:27:24;;;;;;;1.40;1.30;;;22.80;75.30;;;;;;5041903;28;20025;-87
2023/10/17 14:29:52;;;;;;;3.20;1.70;;;23.20;73.50;;;;;;5040015;28;20024;-85
2023/10/17 14:32:29;;;;;;;1.40;1.30;;;23.70;71.70;;;;;;5042117;28;20021;-85
2023/10/17 14:34:58;;;;;;;0.88;0.88;;;23.80;70.30;;;;;;5038295;28;20071;-85
2023/10/17 14:37:24;;;;;;;0.90;0.90;;;24.20;69.10;;;;;;5040470;28;20033;-85
2023/10/17 14:39:54;;;;;;;1.55;1.45;;;24.30;68.30;;;;;;5035063;28;20029;-85
2023/10/17 14:42:20;;;;;;;1.55;1.45;;;24.50;67.50;;;;;;5041820;28;20021;-86
2023/10/17 14:44:46;;;;;;;2.28;1.92;;;24.50;66.50;;;;;;5039679;28;20040;-84
2023/10/17 14:47:14;;;;;;;2.30;1.85;;;24.30;64.80;;;;;;5040882;28;20514;-85
2023/10/17 14:49:43;;;;;;;1.70;1.60;;;23.90;64.60;;;;;;5042999;28;20029;-89
2023/10/17 14:52:11;;;;;;;1.67;1.60;;;23.60;65.90;;;;;;5041575;28;20063;-89
2023/10/17 14:54:37;;;;;;;1.70;1.60;;;23.30;67.10;;;;;;5044691;28;20397;-89
2023/10/17 14:57:06;;;;;;;1.83;1.65;;;23.00;69.00;;;;;;5045815;28;20024;-89
2023/10/17 14:59:38;;;;;;;1.70;1.60;;;22.80;68.70;;;;;;5042394;28;20021;-89
2023/10/17 15:02:07;;;;;;;1.17;1.17;;;22.80;69.60;;;;;;5045178;28;20025;-89
2023/10/17 15:04:37;;;;;;;1.58;1.48;;;22.90;69.20;;;;;;5042335;28;20432;-89
2023/10/17 15:07:06;;;;;;;1.60;1.50;;;23.00;69.70;;;;;;5044062;28;20078;-89
2023/10/17 15:09:34;;;;;;;1.65;1.55;;;23.20;67.40;;;;;;5045712;28;20025;-89
2023/10/17 15:12:00;;;;;;;1.10;1.10;;;23.20;67.80;;;;;;5043403;28;20431;-89
2023/10/17 15:14:26;;;;;;;2.28;2.05;;;23.30;67.00;;;;;;5040387;28;20025;-88
2023/10/17 15:16:52;;;;;;;1.95;1.85;;;23.20;67.30;;;;;;5046566;28;20111;-88
2023/10/17 15:19:17;;;;;;;2.28;1.75;;;23.00;67.20;;;;;;5039942;28;20035;-85
2023/10/17 15:21:43;;;;;;;1.42;1.35;;;22.70;68.30;;;;;;5046355;28;20029;-85